Time;durP1;ratioP1;P1;durP2;ratioP2;P2;SDS_P1;SDS_P2;PMS_P1;PMS_P2;Temp;Humidity;BMP_temperature;BMP_pressure;BME280_temperature;BME280_humidity;BME280_pressure;Samples;Min_cycle;Max_cycle;Signal;HPM_P1;HPM_P2
2024/04/03 00:00:35;;;;;;;9.67;2.80;;;12.70;99.90;;;;;;5014491;28;20447;-71
2024/04/03 00:03:01;;;;;;;7.30;2.60;;;12.70;99.90;;;;;;5010478;28;20188;-71
2024/04/03 00:05:26;;;;;;;5.60;2.83;;;12.70;99.90;;;;;;5014203;28;20474;-72
2024/04/03 00:07:52;;;;;;;6.20;2.57;;;12.70;99.90;;;;;;5013107;28;20188;-71
2024/04/03 00:10:18;;;;;;;5.67;2.73;;;12.60;99.90;;;;;;5015962;28;20172;-71
2024/04/03 00:12:45;;;;;;;5.00;2.60;;;12.70;99.90;;;;;;5018540;28;20446;-71
2024/04/03 00:15:10;;;;;;;7.87;3.20;;;12.60;99.90;;;;;;5016701;28;20447;-71
2024/04/03 00:17:36;;;;;;;7.63;3.37;;;12.60;99.90;;;;;;5015180;28;21098;-72
2024/04/03 00:20:02;;;;;;;4.90;3.13;;;12.60;99.90;;;;;;5015166;28;20172;-72
2024/04/03 00:22:27;;;;;;;4.57;2.73;;;12.50;99.90;;;;;;5018370;28;20184;-71
2024/04/03 00:24:53;;;;;;;7.60;3.53;;;12.50;99.90;;;;;;5019318;28;20675;-72
2024/04/03 00:27:19;;;;;;;5.83;3.40;;;12.50;99.90;;;;;;5013977;28;20302;-71
2024/04/03 00:29:48;;;;;;;6.30;3.07;;;12.50;99.90;;;;;;5020362;28;20177;-71
2024/04/03 00:32:14;;;;;;;6.97;3.10;;;12.40;99.90;;;;;;5014673;28;20227;-71
2024/04/03 00:34:40;;;;;;;3.83;2.80;;;12.40;99.90;;;;;;5019294;28;20514;-71
2024/04/03 00:37:06;;;;;;;6.63;2.93;;;12.30;99.90;;;;;;5015322;28;20465;-71
2024/04/03 00:39:32;;;;;;;5.90;3.10;;;12.30;99.90;;;;;;5020063;28;20897;-71
2024/04/03 00:41:57;;;;;;;6.27;3.33;;;12.30;99.90;;;;;;5013577;28;21145;-70
2024/04/03 00:44:23;;;;;;;5.57;3.47;;;12.30;99.90;;;;;;5016585;28;20455;-70
2024/04/03 00:46:49;;;;;;;7.40;3.30;;;12.30;99.90;;;;;;5015835;28;20212;-70
2024/04/03 00:49:16;;;;;;;7.50;3.03;;;12.20;99.90;;;;;;5017618;28;20234;-71
2024/04/03 00:51:43;;;;;;;5.40;2.90;;;12.20;99.90;;;;;;5016785;28;20455;-70
2024/04/03 00:54:10;;;;;;;6.10;3.63;;;12.20;99.90;;;;;;5021716;28;20486;-71
2024/04/03 00:56:35;;;;;;;5.03;3.23;;;12.10;99.90;;;;;;5017752;28;20443;-71
2024/04/03 00:59:01;;;;;;;7.10;3.23;;;12.10;99.90;;;;;;5011609;28;20439;-71
2024/04/03 01:01:27;;;;;;;12.50;4.43;;;12.10;99.90;;;;;;5011360;28;20196;-71
2024/04/03 01:03:52;;;;;;;7.23;3.60;;;12.10;99.90;;;;;;5013005;28;20196;-71
2024/04/03 01:06:18;;;;;;;6.50;3.47;;;12.10;99.90;;;;;;5006646;28;20208;-71
2024/04/03 01:08:43;;;;;;;5.17;3.00;;;12.00;99.90;;;;;;5008624;28;20700;-71
2024/04/03 01:11:09;;;;;;;5.63;3.53;;;12.00;99.90;;;;;;5011525;28;20206;-71
2024/04/03 01:13:34;;;;;;;4.50;3.70;;;12.00;99.90;;;;;;5012522;28;20278;-71
2024/04/03 01:16:03;;;;;;;5.50;4.40;;;12.00;99.90;;;;;;5012959;28;20278;-71
2024/04/03 01:18:29;;;;;;;14.23;3.60;;;12.00;99.90;;;;;;5015026;28;20682;-71
2024/04/03 01:20:55;;;;;;;8.43;3.20;;;12.00;99.90;;;;;;5018113;28;20442;-71
2024/04/03 01:23:22;;;;;;;5.00;3.30;;;12.00;99.90;;;;;;5016030;28;21166;-71
2024/04/03 01:25:48;;;;;;;5.30;3.37;;;12.00;99.90;;;;;;5014522;28;20811;-71
2024/04/03 01:28:13;;;;;;;5.23;3.20;;;12.00;99.90;;;;;;5017123;28;20469;-71
2024/04/03 01:30:39;;;;;;;6.73;3.23;;;12.00;99.90;;;;;;5016152;28;20462;-71
2024/04/03 01:33:05;;;;;;;7.20;3.67;;;12.00;99.90;;;;;;5015034;28;20250;-71
2024/04/03 01:35:34;;;;;;;7.07;3.30;;;12.00;99.90;;;;;;5015542;28;20257;-71
2024/04/03 01:37:59;;;;;;;4.60;3.30;;;12.10;99.90;;;;;;5018410;28;20207;-71
2024/04/03 01:40:25;;;;;;;4.33;3.17;;;12.00;99.90;;;;;;5019591;28;20436;-71
2024/04/03 01:42:51;;;;;;;6.77;3.50;;;12.00;99.90;;;;;;5017642;28;20208;-71
2024/04/03 01:45:17;;;;;;;8.60;4.10;;;12.00;99.90;;;;;;5012344;28;20378;-71
2024/04/03 01:47:43;;;;;;;7.13;3.27;;;12.10;99.90;;;;;;5016952;28;20197;-71
2024/04/03 01:50:11;;;;;;;5.90;3.20;;;12.10;99.90;;;;;;5011169;28;20184;-71
2024/04/03 01:52:37;;;;;;;5.47;3.10;;;12.10;99.90;;;;;;5012194;28;20431;-71
2024/04/03 01:55:02;;;;;;;6.30;3.03;;;12.10;99.90;;;;;;5014713;28;20450;-71
2024/04/03 01:57:28;;;;;;;6.60;3.27;;;12.10;99.90;;;;;;5017687;28;20262;-71
2024/04/03 01:59:54;;;;;;;7.03;3.23;;;12.10;99.90;;;;;;5014181;28;20192;-71
2024/04/03 02:02:19;;;;;;;5.77;3.50;;;12.20;99.90;;;;;;5015653;28;20223;-71
2024/04/03 02:04:45;;;;;;;6.00;2.80;;;12.20;99.90;;;;;;5016906;28;20228;-71
2024/04/03 02:07:10;;;;;;;7.10;3.30;;;12.20;99.90;;;;;;5017564;28;20211;-70
2024/04/03 02:09:36;;;;;;;4.20;2.70;;;12.20;99.90;;;;;;5017874;28;21223;-70
2024/04/03 02:12:06;;;;;;;7.10;3.23;;;12.20;99.90;;;;;;5016755;28;20553;-71
2024/04/03 02:14:32;;;;;;;11.03;3.33;;;12.30;99.90;;;;;;5014059;28;20276;-71
2024/04/03 02:16:58;;;;;;;6.17;2.73;;;12.30;99.90;;;;;;5015714;28;20447;-71
2024/04/03 02:19:24;;;;;;;5.47;2.70;;;12.30;99.90;;;;;;5012738;28;20204;-71
2024/04/03 02:21:50;;;;;;;4.53;2.67;;;12.30;99.90;;;;;;5016613;28;20192;-71
2024/04/03 02:24:15;;;;;;;2.93;2.50;;;12.30;99.90;;;;;;5010866;28;20486;-71
2024/04/03 02:26:41;;;;;;;6.47;3.00;;;12.30;99.90;;;;;;5012020;28;20219;-71
2024/04/03 02:29:06;;;;;;;5.07;3.00;;;12.30;99.90;;;;;;5015005;28;20191;-71
2024/04/03 02:31:32;;;;;;;5.83;3.00;;;12.30;99.90;;;;;;5020754;28;20238;-71
2024/04/03 02:33:58;;;;;;;4.97;3.07;;;12.30;99.90;;;;;;5029331;28;20189;-71
2024/04/03 02:36:23;;;;;;;7.40;2.70;;;12.30;99.90;;;;;;5016689;28;20193;-71
2024/04/03 02:38:49;;;;;;;4.90;2.80;;;12.30;99.90;;;;;;5023854;28;20196;-72
2024/04/03 02:41:15;;;;;;;5.27;2.87;;;12.30;99.90;;;;;;5019235;28;20282;-71
2024/04/03 02:43:41;;;;;;;5.97;2.93;;;12.30;99.90;;;;;;5024192;28;20221;-72
2024/04/03 02:46:07;;;;;;;4.20;2.80;;;12.30;99.90;;;;;;5016382;28;20596;-71
2024/04/03 02:48:33;;;;;;;7.67;4.03;;;12.30;99.90;;;;;;5013737;28;20184;-71
2024/04/03 02:51:03;;;;;;;5.83;2.80;;;12.30;99.90;;;;;;5018566;28;20508;-71
2024/04/03 02:53:29;;;;;;;5.23;2.87;;;12.30;99.90;;;;;;5018174;28;20189;-72
2024/04/03 02:56:08;;;;;;;5.60;3.37;;;12.30;99.90;;;;;;5017727;28;20877;-72
2024/04/03 02:58:34;;;;;;;6.60;2.97;;;12.30;99.90;;;;;;5016432;28;20438;-72
2024/04/03 03:01:06;;;;;;;5.47;3.10;;;12.20;99.90;;;;;;5024999;28;20533;-71
2024/04/03 03:03:31;;;;;;;3.80;2.70;;;12.20;99.90;;;;;;5011862;28;20442;-72
2024/04/03 03:05:58;;;;;;;4.43;3.00;;;12.20;99.90;;;;;;5019376;28;20475;-72
2024/04/03 03:08:30;;;;;;;4.60;2.70;;;12.20;99.90;;;;;;5021339;28;20207;-71
2024/04/03 03:10:57;;;;;;;6.10;2.50;;;12.20;99.90;;;;;;5014583;28;20450;-71
2024/04/03 03:13:26;;;;;;;5.00;3.10;;;12.20;99.90;;;;;;5017107;28;20427;-71
2024/04/03 03:15:54;;;;;;;6.63;3.23;;;12.20;99.90;;;;;;5013741;28;20463;-71
2024/04/03 03:18:24;;;;;;;4.30;2.53;;;12.20;99.90;;;;;;5019506;28;20484;-71
2024/04/03 03:20:50;;;;;;;8.57;2.97;;;12.20;99.90;;;;;;5019797;28;20423;-71
2024/04/03 03:23:16;;;;;;;5.50;3.17;;;12.20;99.90;;;;;;5016883;28;20442;-71
2024/04/03 03:25:44;;;;;;;10.00;3.23;;;12.20;99.90;;;;;;5016208;28;21139;-71
2024/04/03 03:28:10;;;;;;;4.80;2.90;;;12.20;99.90;;;;;;5013696;28;20440;-71
2024/04/03 03:30:36;;;;;;;4.27;2.30;;;12.20;99.90;;;;;;5014597;28;20431;-71
2024/04/03 03:33:01;;;;;;;3.63;2.67;;;12.20;99.90;;;;;;5014103;28;20587;-71
2024/04/03 03:35:27;;;;;;;4.30;2.60;;;12.20;99.90;;;;;;5012615;28;20220;-71
2024/04/03 03:37:52;;;;;;;5.67;2.53;;;12.20;99.90;;;;;;5016179;28;22253;-71
2024/04/03 03:40:18;;;;;;;3.80;2.47;;;12.20;99.90;;;;;;5010529;28;20224;-71
2024/04/03 03:42:44;;;;;;;6.70;3.20;;;12.20;99.90;;;;;;5012289;28;20622;-71
2024/04/03 03:45:12;;;;;;;3.60;2.43;;;12.20;99.90;;;;;;5012122;28;21221;-71
2024/04/03 03:47:38;;;;;;;4.10;2.40;;;12.20;99.90;;;;;;5012491;28;20188;-71
2024/04/03 03:52:48;;;;;;;5.43;2.57;;;12.10;99.90;;;;;;5011017;28;20239;-71
2024/04/03 03:55:14;;;;;;;3.30;2.30;;;12.20;99.90;;;;;;5018086;28;20882;-72
2024/04/03 03:57:39;;;;;;;4.60;2.83;;;12.10;99.90;;;;;;5010349;28;20319;-71
2024/04/03 04:00:06;;;;;;;6.67;3.00;;;12.10;99.90;;;;;;5017053;28;20199;-71
2024/04/03 04:02:31;;;;;;;4.50;2.50;;;12.10;99.90;;;;;;5007352;28;20223;-71
2024/04/03 04:04:57;;;;;;;3.57;2.00;;;12.10;99.90;;;;;;5015515;28;20454;-71
2024/04/03 04:07:23;;;;;;;5.80;2.93;;;12.00;99.90;;;;;;5021040;28;20227;-71
2024/04/03 04:09:52;;;;;;;4.40;2.20;;;12.00;99.90;;;;;;5019087;28;21545;-71
2024/04/03 04:12:18;;;;;;;5.63;2.30;;;12.10;99.90;;;;;;5010720;28;20280;-71
2024/04/03 04:14:49;;;;;;;5.03;2.60;;;12.00;99.90;;;;;;5014436;28;20616;-71
2024/04/03 04:17:15;;;;;;;4.27;2.80;;;12.00;99.90;;;;;;5014243;28;20463;-71
2024/04/03 04:19:41;;;;;;;7.10;2.43;;;12.00;99.90;;;;;;5015810;28;20447;-71
2024/04/03 04:22:06;;;;;;;3.50;2.00;;;12.00;99.90;;;;;;5014509;28;20439;-71
2024/04/03 04:24:33;;;;;;;4.33;2.33;;;12.00;99.90;;;;;;5013193;28;20948;-71
2024/04/03 04:27:01;;;;;;;3.40;2.40;;;12.00;99.90;;;;;;5013136;28;20581;-71
2024/04/03 04:29:30;;;;;;;7.93;2.30;;;12.00;99.90;;;;;;5020608;28;21357;-71
2024/04/03 04:31:58;;;;;;;5.87;2.70;;;12.00;99.90;;;;;;5017033;28;20424;-70
2024/04/03 04:34:27;;;;;;;7.77;2.57;;;12.10;99.90;;;;;;5024723;28;20456;-70
2024/04/03 04:36:53;;;;;;;6.30;2.67;;;12.10;99.90;;;;;;5020846;28;20475;-70
2024/04/03 04:39:19;;;;;;;5.33;3.13;;;12.10;99.90;;;;;;5020407;28;20513;-71
2024/04/03 04:41:52;;;;;;;6.30;3.20;;;12.10;99.90;;;;;;5017686;28;21117;-71
2024/04/03 04:44:20;;;;;;;4.57;3.20;;;12.10;99.90;;;;;;5016696;28;20462;-71
2024/04/03 04:46:54;;;;;;;7.27;3.50;;;12.00;99.90;;;;;;5012627;28;20470;-71
2024/04/03 04:49:21;;;;;;;4.47;3.13;;;12.00;99.90;;;;;;5013061;28;20450;-71
2024/04/03 04:51:47;;;;;;;6.90;3.10;;;11.90;99.90;;;;;;5014580;28;20443;-71
2024/04/03 04:54:15;;;;;;;3.17;2.47;;;11.90;99.90;;;;;;5016331;28;20484;-71
2024/04/03 04:56:47;;;;;;;3.80;2.67;;;11.80;99.90;;;;;;5008789;28;20431;-71
2024/04/03 04:59:15;;;;;;;5.43;3.17;;;11.80;99.90;;;;;;5009452;28;20803;-71
2024/04/03 05:01:41;;;;;;;6.20;3.40;;;11.80;99.90;;;;;;5008140;28;20466;-71
2024/04/03 05:04:10;;;;;;;7.50;2.90;;;11.80;99.90;;;;;;5013497;28;20467;-72
2024/04/03 05:06:36;;;;;;;6.07;2.90;;;11.70;99.90;;;;;;5022112;28;20258;-71
2024/04/03 05:09:03;;;;;;;6.03;2.80;;;11.70;99.90;;;;;;5015417;28;21350;-71
2024/04/03 05:11:29;;;;;;;3.80;2.90;;;11.70;99.90;;;;;;5012405;28;20707;-71
2024/04/03 05:13:55;;;;;;;4.80;2.93;;;11.70;99.90;;;;;;5011050;28;20475;-71
2024/04/03 05:16:21;;;;;;;5.63;2.83;;;11.70;99.90;;;;;;5014092;28;20462;-72
2024/04/03 05:18:48;;;;;;;5.30;2.47;;;11.70;99.90;;;;;;5016832;28;20242;-72
2024/04/03 05:21:15;;;;;;;4.80;2.30;;;11.70;99.90;;;;;;5016909;28;20438;-71
2024/04/03 05:23:43;;;;;;;4.67;2.50;;;11.70;99.90;;;;;;5014564;28;20500;-71
2024/04/03 05:26:09;;;;;;;5.53;3.07;;;11.60;99.90;;;;;;5021721;28;20459;-72
2024/04/03 05:28:35;;;;;;;5.90;2.90;;;11.60;99.90;;;;;;5016091;28;20566;-71
2024/04/03 05:31:06;;;;;;;7.33;2.60;;;11.60;99.90;;;;;;5015861;28;20527;-72
2024/04/03 05:33:35;;;;;;;7.10;2.93;;;11.60;99.90;;;;;;5013756;28;20576;-71
2024/04/03 05:36:02;;;;;;;3.80;2.17;;;11.50;99.90;;;;;;5018094;28;20462;-71
2024/04/03 05:38:28;;;;;;;3.47;2.40;;;11.60;99.90;;;;;;5018860;28;20500;-72
2024/04/03 05:40:55;;;;;;;4.13;3.23;;;11.60;99.90;;;;;;5020818;28;20439;-72
2024/04/03 05:43:21;;;;;;;5.03;2.70;;;11.60;99.90;;;;;;5013625;28;20450;-72
2024/04/03 05:45:48;;;;;;;5.30;2.83;;;11.60;99.90;;;;;;5014527;28;20471;-72
2024/04/03 05:48:15;;;;;;;4.37;2.70;;;11.60;99.90;;;;;;5014874;28;20422;-72
2024/04/03 05:50:40;;;;;;;6.47;2.60;;;11.50;99.90;;;;;;5016237;28;20439;-72
2024/04/03 05:53:06;;;;;;;5.73;2.20;;;11.50;99.90;;;;;;5019084;28;20458;-72
2024/04/03 05:55:31;;;;;;;3.43;2.20;;;11.60;99.90;;;;;;5011415;28;20211;-72
2024/04/03 05:57:57;;;;;;;7.83;2.40;;;11.60;99.90;;;;;;5015776;28;20675;-71
2024/04/03 06:00:23;;;;;;;3.40;2.30;;;11.70;99.90;;;;;;5013952;28;20688;-71
2024/04/03 06:02:49;;;;;;;4.70;2.60;;;11.70;99.90;;;;;;5010004;28;20189;-71
2024/04/03 06:05:15;;;;;;;6.13;2.33;;;11.70;99.90;;;;;;5019762;28;20455;-71
2024/04/03 06:07:42;;;;;;;3.57;2.60;;;11.70;99.90;;;;;;5012981;28;20188;-71
2024/04/03 06:10:08;;;;;;;15.97;5.03;;;11.70;99.90;;;;;;5019570;28;20185;-71
2024/04/03 06:12:34;;;;;;;4.00;2.30;;;11.80;99.90;;;;;;5018127;28;20434;-71
2024/04/03 06:15:00;;;;;;;4.40;2.47;;;11.80;99.90;;;;;;5024782;28;20860;-73
2024/04/03 06:17:26;;;;;;;4.60;2.63;;;11.90;99.90;;;;;;5016706;28;20432;-72
2024/04/03 06:19:51;;;;;;;4.53;2.67;;;11.80;99.90;;;;;;5020075;28;20181;-72
2024/04/03 06:22:17;;;;;;;3.73;2.20;;;11.90;99.90;;;;;;5019574;28;20185;-72
2024/04/03 06:24:42;;;;;;;6.23;2.73;;;11.90;99.90;;;;;;5021586;28;20212;-72
2024/04/03 06:27:08;;;;;;;4.00;2.23;;;12.00;99.90;;;;;;5018283;28;20215;-72
2024/04/03 06:29:34;;;;;;;4.50;2.80;;;12.00;99.90;;;;;;5016780;28;20176;-72
2024/04/03 06:32:01;;;;;;;3.50;2.37;;;12.10;99.90;;;;;;5017688;28;20457;-72
2024/04/03 06:34:26;;;;;;;4.30;2.23;;;12.20;99.90;;;;;;5015911;28;20209;-73
2024/04/03 06:36:52;;;;;;;3.80;2.07;;;12.10;99.90;;;;;;5019884;28;20464;-72
2024/04/03 06:39:19;;;;;;;3.00;1.90;;;12.20;99.90;;;;;;5017106;28;20189;-71
2024/04/03 06:41:45;;;;;;;3.10;2.00;;;12.30;99.90;;;;;;5014158;28;20271;-71
2024/04/03 06:44:10;;;;;;;6.57;2.80;;;12.20;99.90;;;;;;5012451;28;20924;-72
2024/04/03 06:46:36;;;;;;;2.87;1.80;;;12.20;99.90;;;;;;5012967;28;20213;-72
2024/04/03 06:49:02;;;;;;;4.37;2.23;;;12.10;99.90;;;;;;5015953;28;20577;-72
2024/04/03 06:51:28;;;;;;;5.00;1.87;;;12.20;99.90;;;;;;5015567;28;20218;-72
2024/04/03 06:53:54;;;;;;;3.30;2.43;;;12.10;99.90;;;;;;5018452;28;21075;-72
2024/04/03 06:56:19;;;;;;;3.47;2.00;;;12.10;99.90;;;;;;5013418;28;20193;-72
2024/04/03 06:58:45;;;;;;;3.33;2.07;;;12.00;99.90;;;;;;5010380;28;20357;-72
2024/04/03 07:01:12;;;;;;;8.20;2.47;;;12.00;99.90;;;;;;5011127;28;20184;-71
2024/04/03 07:03:38;;;;;;;3.17;2.20;;;11.90;99.90;;;;;;5025011;28;20356;-71
2024/04/03 07:06:05;;;;;;;4.40;1.90;;;11.90;99.90;;;;;;5024867;28;20478;-71
2024/04/03 07:08:31;;;;;;;3.50;1.70;;;11.90;99.90;;;;;;5019313;28;20458;-72
2024/04/03 07:10:58;;;;;;;3.27;2.20;;;11.90;99.90;;;;;;5015876;28;20428;-72
2024/04/03 07:13:23;;;;;;;4.50;2.13;;;12.00;99.90;;;;;;5013990;28;20445;-72
2024/04/03 07:15:50;;;;;;;3.33;2.40;;;12.00;99.90;;;;;;5029484;28;20210;-72
2024/04/03 07:18:17;;;;;;;3.23;2.57;;;12.00;99.90;;;;;;5016089;28;21254;-72
2024/04/03 07:20:52;;;;;;;3.13;2.00;;;12.10;99.90;;;;;;5013960;28;20435;-70
2024/04/03 07:23:18;;;;;;;3.40;2.00;;;12.30;99.90;;;;;;5019543;28;20438;-71
2024/04/03 07:25:44;;;;;;;5.13;2.57;;;12.30;99.90;;;;;;5014021;28;21471;-71
2024/04/03 07:28:11;;;;;;;4.00;2.17;;;12.40;99.90;;;;;;5015599;28;20445;-71
2024/04/03 07:30:39;;;;;;;3.70;2.10;;;12.50;99.90;;;;;;5017677;28;20203;-71
2024/04/03 07:33:05;;;;;;;2.17;1.63;;;12.60;99.90;;;;;;5014762;28;20450;-71
2024/04/03 07:35:31;;;;;;;3.77;2.20;;;12.70;99.90;;;;;;5013234;28;20473;-72
2024/04/03 07:37:57;;;;;;;2.87;2.10;;;12.80;99.90;;;;;;5016576;28;20520;-71
2024/04/03 07:40:22;;;;;;;4.20;2.20;;;12.90;99.90;;;;;;5022325;28;20893;-71
2024/04/03 07:42:48;;;;;;;3.97;2.17;;;13.00;99.90;;;;;;5016596;28;20185;-71
2024/04/03 07:45:14;;;;;;;6.73;2.50;;;13.10;99.90;;;;;;5018504;28;20581;-71
2024/04/03 07:47:40;;;;;;;4.90;2.10;;;13.20;99.90;;;;;;5017510;28;20650;-71
2024/04/03 07:50:06;;;;;;;3.93;2.10;;;13.30;99.90;;;;;;5020595;28;20462;-70
2024/04/03 07:52:37;;;;;;;3.60;1.90;;;13.40;99.90;;;;;;5019431;28;20870;-70
2024/04/03 07:55:05;;;;;;;4.03;2.60;;;13.50;99.90;;;;;;5021956;28;20855;-72
2024/04/03 07:57:30;;;;;;;4.63;2.30;;;13.50;99.90;;;;;;5018500;28;20573;-71
2024/04/03 07:59:56;;;;;;;3.30;1.80;;;13.60;99.90;;;;;;5018728;28;20890;-71
2024/04/03 08:02:21;;;;;;;5.47;2.30;;;13.80;99.90;;;;;;5017588;28;20277;-71
2024/04/03 08:04:47;;;;;;;5.33;2.43;;;13.90;99.90;;;;;;5010718;28;20216;-71
2024/04/03 08:07:12;;;;;;;2.50;1.90;;;13.90;99.90;;;;;;5012855;28;20235;-72
2024/04/03 08:09:38;;;;;;;6.37;4.53;;;14.00;99.90;;;;;;5020450;28;20184;-72
2024/04/03 08:12:04;;;;;;;3.60;2.83;;;14.00;99.90;;;;;;5019170;28;20193;-72
2024/04/03 08:14:29;;;;;;;4.43;2.40;;;14.10;99.90;;;;;;5014520;28;20201;-72
2024/04/03 08:16:55;;;;;;;4.87;2.60;;;14.20;99.90;;;;;;5019435;28;20208;-71
2024/04/03 08:19:24;;;;;;;3.17;2.30;;;14.20;99.90;;;;;;5021023;28;20205;-70
2024/04/03 08:21:50;;;;;;;4.80;2.43;;;14.30;99.90;;;;;;5022366;28;20188;-70
2024/04/03 08:24:16;;;;;;;4.07;2.43;;;14.50;99.90;;;;;;5022225;28;20447;-70
2024/04/03 08:26:41;;;;;;;3.80;2.17;;;14.60;99.90;;;;;;5020177;28;20197;-71
2024/04/03 08:29:07;;;;;;;4.70;2.47;;;14.60;99.90;;;;;;5022423;28;20403;-71
2024/04/03 08:31:33;;;;;;;3.53;2.43;;;14.70;99.90;;;;;;5024073;28;20200;-71
2024/04/03 08:33:58;;;;;;;5.53;2.50;;;14.80;99.90;;;;;;5015008;28;20177;-71
2024/04/03 08:36:27;;;;;;;3.90;2.10;;;14.90;99.90;;;;;;5020545;28;20185;-70
2024/04/03 08:38:53;;;;;;;11.83;2.60;;;15.00;99.90;;;;;;5016276;28;20188;-70
2024/04/03 08:41:19;;;;;;;5.60;2.67;;;15.10;99.90;;;;;;5020462;28;20427;-70
2024/04/03 08:43:47;;;;;;;4.57;2.10;;;15.30;99.90;;;;;;5017814;28;20267;-71
2024/04/03 08:46:13;;;;;;;3.30;2.27;;;15.40;99.90;;;;;;5021586;28;20466;-71
2024/04/03 08:48:39;;;;;;;3.13;2.00;;;15.40;99.90;;;;;;5018758;28;20435;-71
2024/04/03 08:51:06;;;;;;;2.70;1.80;;;15.40;99.90;;;;;;5020645;28;20419;-70
2024/04/03 08:53:32;;;;;;;4.87;2.17;;;15.40;99.90;;;;;;5016936;28;20438;-71
2024/04/03 08:55:59;;;;;;;2.50;1.80;;;15.50;99.90;;;;;;5015721;28;20957;-71
2024/04/03 08:58:25;;;;;;;3.03;1.87;;;15.60;99.90;;;;;;5020835;28;20812;-70
2024/04/03 09:00:51;;;;;;;3.30;2.00;;;15.60;99.90;;;;;;5026114;28;20486;-71
2024/04/03 09:03:19;;;;;;;2.90;1.83;;;15.50;99.90;;;;;;5021889;28;20423;-70
2024/04/03 09:05:46;;;;;;;3.97;2.27;;;15.60;99.90;;;;;;5019548;28;20558;-70
2024/04/03 09:08:12;;;;;;;2.40;2.10;;;15.50;99.90;;;;;;5019279;28;20415;-70
2024/04/03 09:10:56;;;;;;;4.57;2.10;;;15.50;99.90;;;;;;5017209;28;20468;-71
2024/04/03 09:13:22;;;;;;;2.60;2.00;;;15.50;99.90;;;;;;5002329;28;20180;-71
2024/04/03 09:15:54;;;;;;;2.80;2.07;;;15.60;99.90;;;;;;5022151;28;20469;-71
2024/04/03 09:18:21;;;;;;;4.27;1.80;;;15.60;99.90;;;;;;5024784;28;20430;-71
2024/04/03 09:20:53;;;;;;;3.40;2.00;;;15.60;99.90;;;;;;5021537;28;21024;-73
2024/04/03 09:23:19;;;;;;;2.83;1.80;;;15.70;99.90;;;;;;5015281;28;20423;-72
2024/04/03 09:25:45;;;;;;;2.53;1.80;;;15.60;99.90;;;;;;5019698;28;20477;-71
2024/04/03 09:28:11;;;;;;;2.63;2.20;;;15.70;99.90;;;;;;5021292;28;20192;-72
2024/04/03 09:30:46;;;;;;;2.30;1.93;;;15.80;99.90;;;;;;5015647;28;20196;-72
2024/04/03 09:33:13;;;;;;;5.90;2.00;;;15.80;99.90;;;;;;5018851;28;20530;-71
2024/04/03 09:35:40;;;;;;;4.03;2.20;;;15.80;99.90;;;;;;5019080;28;20762;-72
2024/04/03 09:38:06;;;;;;;2.50;2.10;;;15.70;99.90;;;;;;5016763;28;20470;-71
2024/04/03 09:40:34;;;;;;;4.00;2.20;;;15.70;99.90;;;;;;5022637;28;20455;-70
2024/04/03 09:43:05;;;;;;;3.20;2.13;;;15.70;99.90;;;;;;5012621;28;20202;-70
2024/04/03 09:45:31;;;;;;;4.90;2.20;;;15.80;99.90;;;;;;5015348;28;20443;-70
2024/04/03 09:48:06;;;;;;;6.37;2.10;;;15.80;99.90;;;;;;5016962;28;20496;-71
2024/04/03 09:50:45;;;;;;;4.23;2.23;;;15.70;99.90;;;;;;5019086;28;20410;-71
2024/04/03 09:53:19;;;;;;;2.93;2.03;;;15.70;99.90;;;;;;5017573;28;20846;-71
2024/04/03 09:55:46;;;;;;;2.87;1.80;;;15.50;99.90;;;;;;5018624;28;20490;-71
2024/04/03 09:58:14;;;;;;;3.13;2.10;;;15.40;99.90;;;;;;5020204;28;20445;-70
2024/04/03 10:00:41;;;;;;;3.23;1.80;;;15.30;99.90;;;;;;5014015;28;20454;-70
2024/04/03 10:06:16;;;;;;;2.50;1.80;;;15.10;99.90;;;;;;5026936;22;20941;-70
2024/04/03 10:08:46;;;;;;;2.57;1.70;;;14.90;99.90;;;;;;5018987;28;21021;-70
2024/04/03 10:11:13;;;;;;;2.57;1.80;;;14.90;99.90;;;;;;5020878;28;22174;-70
2024/04/03 10:13:40;;;;;;;2.63;1.60;;;14.90;99.90;;;;;;5015235;28;20419;-70
2024/04/03 10:16:12;;;;;;;2.20;1.63;;;14.80;99.90;;;;;;5018578;28;20439;-71
2024/04/03 10:18:39;;;;;;;2.63;2.10;;;14.70;99.90;;;;;;5015577;28;20438;-70
2024/04/03 10:21:12;;;;;;;4.00;2.20;;;14.50;99.90;;;;;;5017130;28;20439;-70
2024/04/03 10:23:43;;;;;;;2.20;1.70;;;14.30;99.90;;;;;;5014983;28;20536;-70
2024/04/03 10:26:11;;;;;;;2.43;1.70;;;14.20;99.90;;;;;;5014638;28;20462;-70
2024/04/03 10:28:37;;;;;;;2.53;1.80;;;14.10;99.90;;;;;;5017931;28;21086;-72
2024/04/03 10:31:03;;;;;;;3.57;1.83;;;14.10;99.90;;;;;;5017700;28;20442;-71
2024/04/03 10:33:28;;;;;;;2.47;1.70;;;14.10;99.90;;;;;;5019369;28;20436;-70
2024/04/03 10:35:55;;;;;;;3.20;1.80;;;14.10;99.90;;;;;;5022731;28;20283;-71
2024/04/03 10:38:21;;;;;;;2.13;1.60;;;14.10;99.90;;;;;;5024460;28;20317;-70
2024/04/03 10:40:47;;;;;;;2.70;1.50;;;14.00;99.90;;;;;;5027092;28;20878;-71
2024/04/03 10:43:13;;;;;;;3.00;2.07;;;14.00;99.90;;;;;;5021823;28;20554;-71
2024/04/03 10:45:39;;;;;;;3.13;2.10;;;13.90;99.90;;;;;;5022593;28;20548;-71
2024/04/03 10:48:11;;;;;;;2.77;1.70;;;13.80;99.90;;;;;;4995193;28;20442;-71
2024/04/03 10:50:37;;;;;;;3.60;1.73;;;13.80;99.90;;;;;;5014853;28;20420;-72
2024/04/03 10:53:04;;;;;;;2.90;1.90;;;13.80;99.90;;;;;;5015667;28;20498;-72
2024/04/03 10:55:31;;;;;;;3.33;1.63;;;13.80;99.90;;;;;;5018055;28;20459;-72
2024/04/03 10:58:01;;;;;;;3.10;2.13;;;13.90;99.90;;;;;;5016863;28;20765;-71
2024/04/03 11:00:32;;;;;;;5.67;1.90;;;14.00;99.90;;;;;;5017146;28;20428;-72
2024/04/03 11:02:57;;;;;;;3.50;2.07;;;14.10;99.90;;;;;;5022801;28;20419;-73
2024/04/03 11:05:23;;;;;;;3.07;1.70;;;14.20;99.90;;;;;;5016629;28;20502;-72
2024/04/03 11:07:49;;;;;;;3.30;1.80;;;14.30;99.90;;;;;;5012049;28;22333;-73
2024/04/03 11:10:14;;;;;;;2.57;1.80;;;14.40;99.90;;;;;;5017331;28;20654;-72
2024/04/03 11:12:40;;;;;;;3.80;1.90;;;14.60;99.90;;;;;;5017208;28;20667;-71
2024/04/03 11:15:09;;;;;;;1.90;1.40;;;14.60;99.90;;;;;;5012279;28;20197;-72
2024/04/03 11:17:35;;;;;;;2.80;1.53;;;14.60;99.90;;;;;;5018083;28;20189;-72
2024/04/03 11:20:01;;;;;;;2.43;1.63;;;14.80;99.90;;;;;;5017060;28;20778;-72
2024/04/03 11:22:28;;;;;;;2.77;1.97;;;15.00;99.90;;;;;;5019451;28;20500;-72
2024/04/03 11:24:55;;;;;;;4.50;2.00;;;15.00;99.90;;;;;;5014808;28;20247;-73
2024/04/03 11:27:22;;;;;;;2.77;1.93;;;15.20;99.90;;;;;;5015856;28;20569;-73
2024/04/03 11:29:48;;;;;;;2.50;1.70;;;15.40;99.90;;;;;;5001663;28;20950;-73
2024/04/03 11:32:16;;;;;;;2.87;1.80;;;15.60;99.90;;;;;;5020743;28;20446;-73
2024/04/03 11:34:41;;;;;;;2.20;1.67;;;15.70;99.90;;;;;;5018866;28;20200;-72
2024/04/03 11:37:07;;;;;;;2.20;1.60;;;15.50;99.90;;;;;;5011391;28;20444;-72
2024/04/03 11:39:34;;;;;;;3.07;1.50;;;15.40;99.90;;;;;;5014813;28;20915;-72
2024/04/03 11:42:01;;;;;;;4.57;2.80;;;15.30;99.90;;;;;;5017140;28;20197;-74
2024/04/03 11:44:27;;;;;;;3.27;1.83;;;15.20;99.90;;;;;;4997055;28;20454;-73
2024/04/03 11:46:52;;;;;;;2.27;1.50;;;15.40;99.90;;;;;;5013220;28;20474;-72
2024/04/03 11:49:18;;;;;;;3.30;1.57;;;15.30;99.90;;;;;;5016502;28;20271;-72
2024/04/03 11:51:46;;;;;;;2.20;1.50;;;15.50;99.90;;;;;;5011095;28;20189;-73
2024/04/03 11:54:13;;;;;;;2.47;1.70;;;15.40;99.90;;;;;;5010110;28;20197;-73
2024/04/03 11:56:39;;;;;;;2.30;1.60;;;15.40;99.90;;;;;;5013061;28;20467;-73
2024/04/03 11:59:06;;;;;;;3.17;1.70;;;15.60;99.90;;;;;;5013192;28;20524;-73
2024/04/03 12:01:33;;;;;;;2.23;1.63;;;15.60;99.90;;;;;;5012820;28;20189;-73
2024/04/03 12:03:58;;;;;;;2.10;1.70;;;15.50;99.90;;;;;;5013149;28;20442;-73
2024/04/03 12:06:24;;;;;;;2.37;1.43;;;15.50;99.90;;;;;;5018887;28;20471;-74
2024/04/03 12:08:50;;;;;;;3.93;2.00;;;15.40;99.90;;;;;;5015592;28;20565;-73
2024/04/03 12:11:16;;;;;;;2.50;1.67;;;15.50;99.90;;;;;;4997230;28;20180;-73
2024/04/03 12:13:43;;;;;;;4.60;1.50;;;15.60;99.90;;;;;;5016780;28;20533;-73
2024/04/03 12:16:10;;;;;;;2.30;1.60;;;15.50;99.90;;;;;;5014671;28;20457;-72
2024/04/03 12:18:37;;;;;;;2.63;1.90;;;15.40;99.90;;;;;;5020012;28;20524;-70
2024/04/03 12:21:08;;;;;;;2.63;1.63;;;15.60;99.90;;;;;;5021043;28;20497;-71
2024/04/03 12:23:34;;;;;;;2.70;1.60;;;15.50;99.90;;;;;;5014505;28;20451;-70
2024/04/03 12:26:01;;;;;;;2.73;1.90;;;15.50;99.90;;;;;;5012150;28;20477;-71
2024/04/03 12:28:27;;;;;;;1.90;1.40;;;15.30;99.90;;;;;;4996942;28;20455;-69
2024/04/03 12:30:54;;;;;;;2.27;1.73;;;15.20;99.90;;;;;;5013187;28;20541;-69
2024/04/03 12:33:20;;;;;;;2.40;1.60;;;15.20;99.90;;;;;;5012282;28;20192;-69
2024/04/03 12:35:46;;;;;;;2.93;2.30;;;15.20;99.90;;;;;;5017171;28;20453;-69
2024/04/03 12:38:14;;;;;;;2.43;1.53;;;15.40;99.90;;;;;;5006883;28;20483;-69
2024/04/03 12:40:40;;;;;;;2.63;1.50;;;15.30;99.90;;;;;;5011644;28;20481;-71
2024/04/03 12:43:06;;;;;;;2.27;1.57;;;15.40;99.90;;;;;;5011742;28;20465;-70
2024/04/03 12:45:34;;;;;;;2.93;1.70;;;15.30;99.90;;;;;;5019102;28;20960;-69
2024/04/03 12:48:02;;;;;;;4.43;1.80;;;15.40;99.90;;;;;;5007706;28;20192;-69